createdAt,value
2019-02-22T00:00:48.541Z,7.61
2019-02-22T00:03:17.035Z,7.54
2019-02-22T00:05:45.622Z,7.57
2019-02-22T00:08:14.117Z,7.54
2019-02-22T00:10:43.358Z,7.58
2019-02-22T00:13:11.855Z,7.65
2019-02-22T00:15:40.431Z,7.47
2019-02-22T00:18:08.912Z,7.58
2019-02-22T00:20:37.418Z,7.59
2019-02-22T00:23:05.899Z,7.48
2019-02-22T00:25:34.424Z,7.59
2019-02-22T00:28:03.083Z,7.50
2019-02-22T00:30:31.598Z,7.57
2019-02-22T00:33:00.078Z,7.58
2019-02-22T00:35:28.675Z,7.67
2019-02-22T00:37:58.161Z,7.52
2019-02-22T00:40:26.677Z,7.58
2019-02-22T00:42:55.164Z,7.57
2019-02-22T00:45:23.598Z,7.62
2019-02-22T00:47:52.097Z,7.58
2019-02-22T00:50:20.714Z,7.60
2019-02-22T00:52:49.239Z,7.70
2019-02-22T00:55:17.743Z,7.77
2019-02-22T00:57:46.302Z,7.73
2019-02-22T01:00:14.945Z,7.75
2019-02-22T01:02:43.438Z,7.66
2019-02-22T01:05:12.006Z,7.63
2019-02-22T01:07:40.559Z,7.61
2019-02-22T01:10:09.166Z,7.70
2019-02-22T01:12:37.654Z,7.68
2019-02-22T01:15:06.996Z,7.75
2019-02-22T01:17:35.485Z,7.78
2019-02-22T01:20:04.707Z,7.88
2019-02-22T01:22:33.239Z,7.83
2019-02-22T01:25:01.765Z,7.75
2019-02-22T01:27:30.236Z,7.79
2019-02-22T01:29:58.742Z,7.91
2019-02-22T01:32:27.307Z,7.85
2019-02-22T01:34:55.839Z,7.91
2019-02-22T01:37:24.414Z,7.90
2019-02-22T01:39:52.929Z,7.87
2019-02-22T01:42:21.445Z,7.79
2019-02-22T01:44:49.955Z,7.83
2019-02-22T01:47:18.436Z,7.77
2019-02-22T01:49:46.945Z,7.94
2019-02-22T01:52:15.441Z,7.89
2019-02-22T01:54:43.956Z,8.00
2019-02-22T01:57:12.524Z,8.03
2019-02-22T01:59:41.039Z,7.98
2019-02-22T02:02:09.651Z,8.05
2019-02-22T02:04:38.145Z,8.04
2019-02-22T02:07:08.261Z,7.96
2019-02-22T02:09:36.869Z,7.87
2019-02-22T02:12:05.354Z,7.89
2019-02-22T02:14:33.868Z,7.93
2019-02-22T02:17:02.368Z,8.04
2019-02-22T02:19:30.853Z,7.99
2019-02-22T02:21:59.359Z,8.01
2019-02-22T02:24:27.876Z,7.99
2019-02-22T02:26:56.375Z,8.06
2019-02-22T02:29:25.992Z,8.11
2019-02-22T02:31:54.516Z,8.09
2019-02-22T02:34:22.998Z,8.05
2019-02-22T02:36:51.515Z,8.14
2019-02-22T02:39:20.011Z,8.13
2019-02-22T02:41:48.519Z,8.05
2019-02-22T02:44:17.005Z,8.05
2019-02-22T02:46:45.547Z,8.00
2019-02-22T02:49:14.020Z,8.10
2019-02-22T02:51:42.605Z,7.96
2019-02-22T02:54:11.091Z,8.05
2019-02-22T02:56:40.627Z,7.93
2019-02-22T02:59:09.119Z,7.97
2019-02-22T03:01:37.815Z,7.89
2019-02-22T03:04:07.887Z,7.90
2019-02-22T03:06:38.500Z,7.83
2019-02-22T03:09:08.804Z,7.89
2019-02-22T03:11:37.321Z,7.78
2019-02-22T03:14:05.846Z,7.80
2019-02-22T03:16:34.333Z,7.88
2019-02-22T03:19:02.819Z,7.74
2019-02-22T03:21:31.339Z,7.76
2019-02-22T03:23:59.831Z,7.76
2019-02-22T03:26:28.346Z,7.79
2019-02-22T03:28:56.831Z,7.74
2019-02-22T03:31:25.351Z,7.73
2019-02-22T03:33:53.839Z,7.75
2019-02-22T03:36:22.379Z,7.73
2019-02-22T03:38:50.838Z,7.76
2019-02-22T03:41:19.350Z,7.64
2019-02-22T03:43:47.834Z,7.62
2019-02-22T03:46:16.340Z,7.59
2019-02-22T03:48:44.825Z,7.62
2019-02-22T03:51:13.333Z,7.60
2019-02-22T03:53:43.456Z,7.70
2019-02-22T03:56:12.023Z,7.66
2019-02-22T03:58:40.693Z,7.67
2019-02-22T04:01:09.203Z,7.62
2019-02-22T04:03:37.682Z,7.65
2019-02-22T04:06:06.201Z,7.62
2019-02-22T04:08:36.973Z,7.68
2019-02-22T04:11:05.490Z,7.72
2019-02-22T04:13:33.966Z,7.67
2019-02-22T04:16:02.481Z,7.70
2019-02-22T04:18:30.957Z,7.80
2019-02-22T04:20:59.544Z,7.73
2019-02-22T04:23:28.031Z,7.67
2019-02-22T04:25:56.544Z,7.53
2019-02-22T04:28:25.023Z,7.53
2019-02-22T04:30:53.518Z,7.57
2019-02-22T04:33:21.998Z,7.47
2019-02-22T04:35:50.496Z,7.41
2019-02-22T04:38:18.983Z,7.37
2019-02-22T04:40:47.494Z,7.35
2019-02-22T04:43:15.963Z,7.37
2019-02-22T04:45:44.453Z,7.38
2019-02-22T04:48:13.739Z,7.29
2019-02-22T04:50:42.220Z,7.44
2019-02-22T04:53:10.779Z,7.39
2019-02-22T04:55:39.368Z,7.46
2019-02-22T04:58:08.977Z,7.46
2019-02-22T05:00:37.454Z,7.46
2019-02-22T05:03:05.971Z,7.47
2019-02-22T05:05:34.447Z,7.35
2019-02-22T05:08:02.991Z,7.34
2019-02-22T05:10:31.468Z,7.42
2019-02-22T05:12:59.981Z,7.30
2019-02-22T05:15:29.340Z,7.30
2019-02-22T05:17:57.838Z,7.33
2019-02-22T05:20:26.338Z,7.29
2019-02-22T05:23:03.265Z,7.24
2019-02-22T05:25:25.040Z,7.25
2019-02-22T05:27:53.557Z,7.26
2019-02-22T05:30:22.051Z,7.29
2019-02-22T05:32:50.570Z,7.29
2019-02-22T05:35:19.049Z,7.28
2019-02-22T05:37:47.546Z,7.26
2019-02-22T05:40:16.087Z,7.19
2019-02-22T05:42:44.594Z,7.20
2019-02-22T05:45:13.126Z,7.22
2019-02-22T05:47:41.911Z,7.24
2019-02-22T05:50:10.485Z,7.22
2019-02-22T05:52:38.998Z,7.24
2019-02-22T05:55:09.081Z,7.18
2019-02-22T05:57:37.550Z,7.23
2019-02-22T06:00:07.556Z,7.15
2019-02-22T06:02:36.124Z,7.19
2019-02-22T06:05:05.761Z,7.19
2019-02-22T06:07:34.254Z,7.15
2019-02-22T06:10:02.741Z,7.14
2019-02-22T06:12:34.620Z,7.05
2019-02-22T06:15:01.477Z,6.77
2019-02-22T06:17:30.005Z,6.42
2019-02-22T06:19:58.484Z,6.16
2019-02-22T06:22:29.894Z,6.05
2019-02-22T06:24:57.206Z,5.89
2019-02-22T06:27:25.709Z,5.66
2019-02-22T06:29:54.221Z,5.58
2019-02-22T06:32:22.713Z,5.37
2019-02-22T06:34:51.191Z,5.21
2019-02-22T06:37:19.706Z,5.16
2019-02-22T06:39:48.207Z,5.19
2019-02-22T06:42:16.689Z,5.21
2019-02-22T06:44:45.180Z,5.09
2019-02-22T06:47:13.688Z,5.02
2019-02-22T06:49:44.492Z,4.91
2019-02-22T06:52:13.227Z,4.73
2019-02-22T06:54:41.729Z,4.57
2019-02-22T06:57:10.245Z,4.50
2019-02-22T06:59:38.730Z,4.40
2019-02-22T07:02:08.183Z,4.21
2019-02-22T07:04:36.691Z,4.25
2019-02-22T07:07:05.344Z,4.04
2019-02-22T07:09:33.832Z,4.04
2019-02-22T07:12:03.970Z,3.88
2019-02-22T07:14:32.484Z,3.81
2019-02-22T07:17:00.974Z,3.73
2019-02-22T07:19:29.489Z,3.62
2019-02-22T07:21:57.979Z,3.68
2019-02-22T07:24:26.497Z,3.73
2019-02-22T07:26:55.033Z,3.60
2019-02-22T07:29:23.545Z,3.54
2019-02-22T07:31:52.043Z,3.60
2019-02-22T07:34:20.567Z,3.59
2019-02-22T07:36:50.570Z,3.60
2019-02-22T07:39:27.448Z,3.51
2019-02-22T07:41:49.315Z,3.40
2019-02-22T07:44:17.845Z,3.36
2019-02-22T07:46:46.361Z,3.27
2019-02-22T07:49:23.445Z,3.29
2019-02-22T07:51:52.008Z,3.28
2019-02-22T07:54:20.537Z,3.33
2019-02-22T07:56:49.122Z,3.25
2019-02-22T07:59:17.640Z,3.28
2019-02-22T08:01:47.629Z,3.19
2019-02-22T08:04:16.405Z,3.19
2019-02-22T08:06:44.906Z,3.10
2019-02-22T08:09:13.427Z,3.10
2019-02-22T08:11:41.933Z,3.15
2019-02-22T08:14:10.575Z,3.11
2019-02-22T08:16:39.077Z,3.01
2019-02-22T08:19:07.587Z,2.99
2019-02-22T08:21:36.077Z,3.06
2019-02-22T08:24:04.709Z,3.05
2019-02-22T08:26:33.275Z,2.93
2019-02-22T08:29:01.790Z,2.97
2019-02-22T08:31:30.287Z,2.97
2019-02-22T08:33:58.950Z,3.00
2019-02-22T08:36:27.458Z,2.96
2019-02-22T08:38:56.130Z,3.05
2019-02-22T08:41:24.614Z,3.01
2019-02-22T08:43:53.131Z,2.75
2019-02-22T08:46:21.634Z,2.85
2019-02-22T08:48:50.160Z,2.80
2019-02-22T08:51:18.844Z,2.90
2019-02-22T08:53:47.318Z,2.98
2019-02-22T08:56:15.815Z,2.92
2019-02-22T08:58:44.316Z,2.89
2019-02-22T09:01:12.835Z,2.94
2019-02-22T09:03:50.779Z,2.90
2019-02-22T09:06:11.685Z,2.88
2019-02-22T09:08:40.150Z,2.74
2019-02-22T09:11:08.732Z,2.60
2019-02-22T09:13:43.705Z,2.52
2019-02-22T09:16:07.481Z,2.42
2019-02-22T09:18:35.975Z,2.31
2019-02-22T09:21:04.490Z,2.36
2019-02-22T09:23:32.980Z,2.39
2019-02-22T09:26:01.494Z,2.45
2019-02-22T09:28:29.995Z,2.51
2019-02-22T09:30:58.599Z,2.50
2019-02-22T09:33:27.107Z,2.55
2019-02-22T09:35:55.629Z,2.40
2019-02-22T09:38:24.136Z,2.13
2019-02-22T09:40:52.682Z,2.09
2019-02-22T09:43:21.171Z,2.03
2019-02-22T09:45:49.684Z,2.09
2019-02-22T09:48:18.175Z,2.08
2019-02-22T09:50:46.690Z,2.16
2019-02-22T09:53:15.197Z,2.41
2019-02-22T09:55:43.722Z,2.52
2019-02-22T09:58:12.223Z,2.63
2019-02-22T10:00:40.726Z,2.61
2019-02-22T10:03:09.212Z,2.77
2019-02-22T10:05:37.722Z,2.66
2019-02-22T10:08:06.206Z,2.63
2019-02-22T10:10:34.739Z,2.48
2019-02-22T10:13:03.215Z,2.42
2019-02-22T10:15:31.741Z,2.54
2019-02-22T10:18:00.232Z,2.73
2019-02-22T10:20:28.753Z,3.14
2019-02-22T10:22:57.229Z,3.37
2019-02-22T10:25:25.740Z,3.54
2019-02-22T10:27:54.220Z,3.83
2019-02-22T10:30:22.729Z,4.43
2019-02-22T10:32:51.216Z,4.46
2019-02-22T10:35:19.714Z,4.54
2019-02-22T10:37:48.200Z,4.74
2019-02-22T10:40:16.714Z,4.87
2019-02-22T10:42:45.202Z,4.24
2019-02-22T10:45:13.705Z,3.85
2019-02-22T10:47:42.178Z,3.71
2019-02-22T10:50:10.826Z,3.92
2019-02-22T10:52:39.298Z,3.84
2019-02-22T10:55:12.547Z,3.44
2019-02-22T10:57:41.036Z,3.30
2019-02-22T11:00:12.854Z,3.01
2019-02-22T11:02:41.403Z,3.02
2019-02-22T11:05:10.083Z,3.16
2019-02-22T11:07:38.561Z,3.38
2019-02-22T11:10:09.885Z,3.53
2019-02-22T11:12:38.361Z,3.94
2019-02-22T11:15:09.497Z,3.97
2019-02-22T11:17:37.995Z,3.93
2019-02-22T11:20:10.700Z,3.83
2019-02-22T11:22:39.273Z,4.98
2019-02-22T11:25:10.944Z,4.98
2019-02-22T11:27:39.426Z,5.51
2019-02-22T11:30:12.843Z,6.19
2019-02-22T11:32:41.384Z,6.19
2019-02-22T11:35:10.766Z,6.16
2019-02-22T11:37:39.247Z,5.76
2019-02-22T11:40:09.297Z,5.39
2019-02-22T11:42:37.783Z,5.59
2019-02-22T11:45:07.729Z,5.67
2019-02-22T11:47:36.201Z,5.17
2019-02-22T11:50:07.558Z,5.17
2019-02-22T11:52:36.051Z,4.77
2019-02-22T11:55:06.654Z,4.98
2019-02-22T11:57:35.231Z,5.54
2019-02-22T12:00:05.687Z,6.23
2019-02-22T12:02:34.271Z,6.77
2019-02-22T12:05:02.756Z,7.16
2019-02-22T12:07:31.273Z,7.65
2019-02-22T12:09:59.740Z,7.91
2019-02-22T12:12:28.247Z,7.47
2019-02-22T12:14:56.735Z,7.34
2019-02-22T12:17:25.393Z,6.93
2019-02-22T12:19:53.871Z,7.10
2019-02-22T12:22:22.369Z,7.28
2019-02-22T12:24:50.853Z,7.05
2019-02-22T12:27:19.412Z,6.38
2019-02-22T12:29:48.067Z,5.46
2019-02-22T12:32:16.568Z,4.71
2019-02-22T12:34:45.044Z,4.83
2019-02-22T12:37:13.566Z,5.93
2019-02-22T12:39:42.025Z,6.89
2019-02-22T12:42:10.532Z,7.14
2019-02-22T12:44:39.007Z,7.36
2019-02-22T12:47:08.373Z,7.72
2019-02-22T12:49:36.856Z,8.17
2019-02-22T12:52:05.440Z,8.26
2019-02-22T12:54:33.930Z,8.57
2019-02-22T12:57:02.440Z,8.30
2019-02-22T12:59:30.921Z,8.50
2019-02-22T13:01:59.442Z,8.46
2019-02-22T13:04:27.930Z,8.79
2019-02-22T13:06:56.445Z,8.81
2019-02-22T13:09:35.999Z,9.52
2019-02-22T13:11:55.164Z,9.81
2019-02-22T13:14:23.652Z,9.64
2019-02-22T13:16:52.162Z,10.15
2019-02-22T13:19:20.659Z,10.84
2019-02-22T13:21:49.205Z,10.82
2019-02-22T13:24:17.693Z,11.48
2019-02-22T13:26:46.208Z,11.37
2019-02-22T13:29:14.730Z,12.10
2019-02-22T13:31:43.240Z,13.06
2019-02-22T13:34:11.723Z,14.01
2019-02-22T13:36:40.230Z,14.12
2019-02-22T13:39:08.711Z,14.33
2019-02-22T13:41:37.297Z,15.22
2019-02-22T13:44:05.807Z,15.76
2019-02-22T13:46:34.320Z,16.09
2019-02-22T13:49:02.870Z,15.14
2019-02-22T13:51:33.964Z,13.96
2019-02-22T13:54:02.318Z,14.05
2019-02-22T13:56:32.520Z,14.01
2019-02-22T13:59:01.003Z,13.37
2019-02-22T14:01:29.528Z,12.24
2019-02-22T14:03:58.021Z,10.17
2019-02-22T14:06:26.624Z,8.84
2019-02-22T14:08:55.111Z,10.57
2019-02-22T14:11:23.668Z,11.52
2019-02-22T14:13:52.154Z,12.77
2019-02-22T14:16:20.673Z,14.15
2019-02-22T14:18:49.168Z,14.40
2019-02-22T14:21:17.688Z,13.35
2019-02-22T14:23:46.176Z,13.73
2019-02-22T14:26:14.739Z,13.27
2019-02-22T14:28:43.260Z,13.26
2019-02-22T14:31:11.740Z,13.48
2019-02-22T14:33:40.258Z,14.17
2019-02-22T14:36:08.749Z,14.66
2019-02-22T14:38:37.293Z,13.97
2019-02-22T14:41:05.789Z,13.22
2019-02-22T14:43:34.795Z,12.92
2019-02-22T14:46:03.305Z,13.19
2019-02-22T14:48:31.826Z,13.24
2019-02-22T14:51:00.314Z,12.74
2019-02-22T14:53:28.831Z,11.50
2019-02-22T14:55:59.792Z,11.86
2019-02-22T14:58:27.579Z,12.73
2019-02-22T15:00:56.079Z,13.21
2019-02-22T15:03:24.598Z,12.18
2019-02-22T15:05:53.089Z,11.94
2019-02-22T15:08:21.613Z,11.00
2019-02-22T15:10:50.182Z,8.45
2019-02-22T15:13:18.908Z,7.06
2019-02-22T15:16:00.579Z,6.14
2019-02-22T15:18:24.951Z,5.28
2019-02-22T15:20:53.452Z,4.78
2019-02-22T15:23:21.980Z,4.73
2019-02-22T15:25:50.481Z,4.10
2019-02-22T15:28:19.007Z,4.10
2019-02-22T15:30:47.647Z,3.97
2019-02-22T15:33:16.194Z,3.78
2019-02-22T15:35:44.665Z,3.71
2019-02-22T15:38:13.182Z,3.59
2019-02-22T15:40:41.663Z,3.58
2019-02-22T15:43:10.167Z,3.33
2019-02-22T15:45:38.653Z,3.23
2019-02-22T15:48:07.155Z,3.07
2019-02-22T15:50:35.626Z,3.05
2019-02-22T15:53:04.254Z,2.93
2019-02-22T15:55:32.909Z,2.77
2019-02-22T15:58:01.405Z,2.63
2019-02-22T16:00:34.198Z,2.56
2019-02-22T16:03:02.711Z,2.46
2019-02-22T16:05:39.105Z,2.41
2019-02-22T16:08:08.026Z,2.31
2019-02-22T16:10:36.645Z,2.18
2019-02-22T16:13:05.222Z,1.98
2019-02-22T16:15:33.780Z,1.84
2019-02-22T16:18:02.302Z,1.81
2019-02-22T16:20:30.859Z,1.78
2019-02-22T16:22:59.378Z,1.82
2019-02-22T16:25:27.864Z,1.58
2019-02-22T16:27:57.923Z,1.40
2019-02-22T16:30:28.108Z,1.36
2019-02-22T16:32:56.608Z,1.34
2019-02-22T16:35:25.115Z,1.37
2019-02-22T16:37:53.622Z,1.28
2019-02-22T16:40:22.119Z,1.17
2019-02-22T16:42:50.626Z,1.21
2019-02-22T16:45:19.149Z,1.18
2019-02-22T16:47:47.663Z,1.12
2019-02-22T16:50:16.152Z,0.97
2019-02-22T16:52:45.353Z,0.92
2019-02-22T16:55:16.924Z,0.90
2019-02-22T16:57:45.426Z,0.83
2019-02-22T17:00:16.064Z,0.79
2019-02-22T17:02:44.652Z,0.73
2019-02-22T17:05:15.475Z,0.70
2019-02-22T17:07:43.996Z,0.60
2019-02-22T17:10:12.670Z,0.46
2019-02-22T17:12:41.253Z,0.53
2019-02-22T17:15:12.057Z,0.52
2019-02-22T17:17:40.574Z,0.38
2019-02-22T17:20:12.504Z,0.42
2019-02-22T17:22:40.985Z,0.34
2019-02-22T17:25:14.977Z,0.28
2019-02-22T17:27:43.487Z,0.24
2019-02-22T17:30:17.049Z,0.03
2019-02-22T17:32:45.590Z,-0.05
2019-02-22T17:35:14.154Z,0.00
2019-02-22T17:37:42.620Z,0.02
2019-02-22T17:40:13.775Z,0.07
2019-02-22T17:42:42.270Z,-0.11
2019-02-22T17:45:10.799Z,-0.19
2019-02-22T17:47:39.283Z,-0.13
2019-02-22T17:50:09.843Z,-0.13
2019-02-22T17:52:38.336Z,-0.13
2019-02-22T17:55:11.495Z,-0.28
2019-02-22T17:57:40.066Z,-0.25
2019-02-22T18:00:15.359Z,-0.34
2019-02-22T18:02:43.914Z,-0.11
2019-02-22T18:05:12.667Z,-0.16
2019-02-22T18:07:41.152Z,-0.13
2019-02-22T18:10:10.802Z,-0.14
2019-02-22T18:12:39.293Z,-0.20
2019-02-22T18:15:10.862Z,-0.15
2019-02-22T18:17:39.892Z,-0.25
2019-02-22T18:20:09.148Z,-0.21
2019-02-22T18:22:37.645Z,-0.23
2019-02-22T18:25:08.399Z,-0.34
2019-02-22T18:27:36.953Z,-0.34
2019-02-22T18:30:14.447Z,-0.31
2019-02-22T18:32:42.946Z,-0.24
2019-02-22T18:35:11.493Z,-0.32
2019-02-22T18:37:39.983Z,-0.39
2019-02-22T18:40:11.762Z,-0.35
2019-02-22T18:42:41.750Z,-0.43
2019-02-22T18:45:10.656Z,-0.57
2019-02-22T18:47:39.153Z,-0.61
2019-02-22T18:50:10.108Z,-0.61
2019-02-22T18:52:38.668Z,-0.54
2019-02-22T18:55:11.282Z,-0.66
2019-02-22T18:57:39.994Z,-0.63
2019-02-22T19:00:15.381Z,-0.57
2019-02-22T19:02:43.866Z,-0.60
2019-02-22T19:05:12.378Z,-0.67
2019-02-22T19:07:40.861Z,-0.75
2019-02-22T19:10:11.822Z,-0.71
2019-02-22T19:12:40.484Z,-0.94
2019-02-22T19:15:11.332Z,-0.85
2019-02-22T19:17:39.814Z,-0.88
2019-02-22T19:20:18.602Z,-1.10
2019-02-22T19:22:47.081Z,-1.09
2019-02-22T19:25:15.596Z,-1.06
2019-02-22T19:27:46.427Z,-0.97
2019-02-22T19:30:16.653Z,-1.04
2019-02-22T19:32:45.148Z,-0.94
2019-02-22T19:35:13.662Z,-0.86
2019-02-22T19:37:42.149Z,-0.92
2019-02-22T19:40:13.451Z,-0.94
2019-02-22T19:42:41.944Z,-0.98
2019-02-22T19:45:11.597Z,-1.00
2019-02-22T19:47:42.264Z,-0.97
2019-02-22T19:50:14.300Z,-0.95
2019-02-22T19:52:42.788Z,-1.10
2019-02-22T19:55:13.944Z,-1.10
2019-02-22T19:57:42.403Z,-1.26
2019-02-22T20:00:16.568Z,-1.16
2019-02-22T20:02:45.063Z,-1.22
2019-02-22T20:05:14.730Z,-1.15
2019-02-22T20:07:43.231Z,-1.27
2019-02-22T20:10:17.949Z,-1.26
2019-02-22T20:12:44.346Z,-1.40
2019-02-22T20:15:14.909Z,-1.55
2019-02-22T20:17:53.336Z,-1.61
2019-02-22T20:20:18.324Z,-1.61
2019-02-22T20:22:46.889Z,-1.55
2019-02-22T20:25:16.788Z,-1.55
2019-02-22T20:27:45.278Z,-1.61
2019-02-22T20:30:16.160Z,-1.85
2019-02-22T20:32:44.682Z,-1.75
2019-02-22T20:35:24.353Z,-1.76
2019-02-22T20:37:53.466Z,-2.02
2019-02-22T20:40:22.323Z,-1.89
2019-02-22T20:42:53.196Z,-2.53
2019-02-22T20:45:21.741Z,-2.11
2019-02-22T20:47:50.234Z,-2.06
2019-02-22T20:50:18.771Z,-2.12
2019-02-22T20:52:47.257Z,-2.28
2019-02-22T20:55:15.774Z,-2.18
2019-02-22T20:57:44.272Z,-2.01
2019-02-22T21:00:23.803Z,-1.98
2019-02-22T21:02:52.302Z,-2.03
2019-02-22T21:05:20.822Z,-2.06
2019-02-22T21:07:49.339Z,-2.26
2019-02-22T21:10:23.444Z,-2.34
2019-02-22T21:12:53.291Z,-2.39
2019-02-22T21:15:22.292Z,-2.51
2019-02-22T21:17:51.290Z,-2.40
2019-02-22T21:20:22.874Z,-2.29
2019-02-22T21:22:51.672Z,-2.22
2019-02-22T21:25:20.488Z,-2.24
2019-02-22T21:27:49.393Z,-2.34
2019-02-22T21:30:21.067Z,-2.30
2019-02-22T21:32:51.673Z,-2.35
2019-02-22T21:35:20.675Z,-2.30
2019-02-22T21:37:49.458Z,-2.29
2019-02-22T21:40:18.242Z,-2.28
2019-02-22T21:42:46.884Z,-2.39
2019-02-22T21:45:16.375Z,-2.52
2019-02-22T21:47:54.130Z,-2.50
2019-02-22T21:50:16.492Z,-2.56
2019-02-22T21:52:45.320Z,-2.69
2019-02-22T21:55:15.277Z,-2.51
2019-02-22T21:57:44.862Z,-2.52
2019-02-22T22:00:16.520Z,-2.62
2019-02-22T22:02:45.165Z,-2.60
2019-02-22T22:05:13.904Z,-2.72
2019-02-22T22:07:42.679Z,-2.73
2019-02-22T22:10:11.253Z,-2.82
2019-02-22T22:12:39.899Z,-2.79
2019-02-22T22:15:13.717Z,-2.98
2019-02-22T22:17:42.577Z,-2.85
2019-02-22T22:20:11.651Z,-2.77
2019-02-22T22:22:40.492Z,-2.81
2019-02-22T22:25:13.726Z,-2.94
2019-02-22T22:27:42.646Z,-3.03
2019-02-22T22:30:15.689Z,-3.12
2019-02-22T22:32:45.389Z,-3.08
2019-02-22T22:35:16.396Z,-3.10
2019-02-22T22:37:45.070Z,-3.09
2019-02-22T22:40:15.039Z,-3.01
2019-02-22T22:42:45.036Z,-3.11
2019-02-22T22:45:16.128Z,-3.13
2019-02-22T22:47:44.929Z,-3.20
2019-02-22T22:50:18.328Z,-3.29
2019-02-22T22:52:46.897Z,-3.38
2019-02-22T22:55:15.484Z,-3.34
2019-02-22T22:57:44.353Z,-3.31
2019-02-22T23:00:19.330Z,-3.26
2019-02-22T23:02:48.167Z,-3.43
2019-02-22T23:05:16.825Z,-3.37
2019-02-22T23:07:45.369Z,-3.39
2019-02-22T23:10:14.068Z,-3.50
2019-02-22T23:12:44.284Z,-3.46
2019-02-22T23:15:12.937Z,-3.41
2019-02-22T23:17:41.449Z,-3.54
2019-02-22T23:20:10.101Z,-3.58
2019-02-22T23:22:38.626Z,-3.67
2019-02-22T23:25:07.534Z,-3.74
2019-02-22T23:27:36.052Z,-3.69
2019-02-22T23:30:06.290Z,-3.77
2019-02-22T23:32:34.808Z,-3.85
2019-02-22T23:35:03.565Z,-3.87
2019-02-22T23:37:32.080Z,-3.68
2019-02-22T23:40:00.569Z,-3.66
2019-02-22T23:42:29.084Z,-3.80
2019-02-22T23:44:57.571Z,-3.83
2019-02-22T23:47:26.101Z,-3.73
2019-02-22T23:49:54.594Z,-3.71
2019-02-22T23:52:23.111Z,-3.78
2019-02-22T23:54:51.596Z,-3.77
2019-02-22T23:57:20.108Z,-3.71
2019-02-22T23:59:48.599Z,-3.82
